CPX235 Details

Departure: Phoenix Sky Harbor International Airport (KPHX)
Arrival: Miami International Airport (KMIA)
Route: ECLPS1 PHASE ELP FST J86 LEV Y290 BLVNS Y290 BAGGS SSCOT5


Current Weather Information
KPHX 252251Z 15005KT 10SM FEW250 30/M06 A2998 RMK AO2 SLP140 T03001056
KMIA 252253Z 12010KT 10SM FEW025 FEW042 FEW250 25/19 A3002 RMK AO2 SLP164 T02500194